Duchess, Canada
Current Conditions -  °F | °C
As of 6:00 AM on Wednesday 22 Oct 2014 (Local Time) from CYXH Reporting Station
Clear Clear  
Wind Chill: 37°   Ceiling: Unl
Heat Index: 43°   Visibility: 9mi
Dew Point: 37°   Wind: 9mph
Humidity: 81%   Direction: 240°WSW
Pressure: 29.8"   Gusts: NA
Location:  50.73°N, 111.9°W
Report Text: CYXH 221200Z AUTO 24008KT 9SM CLR 06/03 A2980 RMK SLP101
Loading
Personal Weather Stations






























Interactive Weather Map
Tropical Storm Tracking
New forecast layout! Learn more

10-Day Weather Forecast

Advertisements
Track Severe Weather on mobile